createdAt,value
2017-12-29T00:02:01.949Z,0.90
2017-12-29T00:04:29.897Z,0.90
2017-12-29T00:06:57.789Z,1.00
2017-12-29T00:09:25.743Z,1.00
2017-12-29T00:11:53.653Z,1.10
2017-12-29T00:14:22.812Z,1.10
2017-12-29T00:16:50.973Z,1.00
2017-12-29T00:19:18.921Z,1.00
2017-12-29T00:21:46.825Z,0.90
2017-12-29T00:24:14.778Z,0.80
2017-12-29T00:26:46.750Z,0.70
2017-12-29T00:29:14.694Z,0.60
2017-12-29T00:31:42.593Z,0.60
2017-12-29T00:34:10.525Z,0.60
2017-12-29T00:36:38.529Z,0.60
2017-12-29T00:39:07.280Z,0.50
2017-12-29T00:41:35.402Z,0.40
2017-12-29T00:44:03.402Z,0.30
2017-12-29T00:46:32.726Z,0.30
2017-12-29T00:49:00.746Z,0.30
2017-12-29T00:51:28.668Z,0.40
2017-12-29T00:53:57.498Z,0.40
2017-12-29T00:56:26.480Z,0.40
2017-12-29T00:58:56.523Z,0.50
2017-12-29T01:01:24.612Z,0.40
2017-12-29T01:03:53.590Z,0.50
2017-12-29T01:06:21.532Z,0.50
2017-12-29T01:08:49.555Z,0.60
2017-12-29T01:11:17.440Z,0.60
2017-12-29T01:13:45.363Z,0.60
2017-12-29T01:16:13.514Z,0.60
2017-12-29T01:18:41.544Z,0.60
2017-12-29T01:21:09.434Z,0.60
2017-12-29T01:23:37.445Z,0.50
2017-12-29T01:26:05.347Z,0.40
2017-12-29T01:28:33.272Z,0.30
2017-12-29T01:31:02.983Z,0.40
2017-12-29T01:33:32.971Z,0.40
2017-12-29T01:36:01.395Z,0.40
2017-12-29T01:38:30.301Z,0.40
2017-12-29T01:40:58.674Z,0.30
2017-12-29T01:43:27.369Z,0.30
2017-12-29T01:45:55.779Z,0.30
2017-12-29T01:48:25.998Z,0.30
2017-12-29T01:50:55.217Z,0.20
2017-12-29T01:53:23.415Z,0.30
2017-12-29T01:55:53.424Z,0.30
2017-12-29T01:58:22.232Z,0.40
2017-12-29T02:00:50.161Z,0.40
2017-12-29T02:03:18.532Z,0.50
2017-12-29T02:05:48.479Z,0.60
2017-12-29T02:08:16.366Z,0.50
2017-12-29T02:10:44.313Z,0.60
2017-12-29T02:13:12.196Z,0.60
2017-12-29T02:15:40.124Z,0.60
2017-12-29T02:18:08.038Z,0.70
2017-12-29T02:20:35.995Z,0.70
2017-12-29T02:23:03.885Z,0.60
2017-12-29T02:25:31.826Z,0.60
2017-12-29T02:27:59.731Z,0.50
2017-12-29T02:30:27.692Z,0.40
2017-12-29T02:32:55.579Z,0.40
2017-12-29T02:35:23.533Z,0.30
2017-12-29T02:37:52.549Z,0.40
2017-12-29T02:40:20.494Z,0.30
2017-12-29T02:42:48.387Z,0.20
2017-12-29T02:45:16.316Z,0.10
2017-12-29T02:47:44.198Z,0.00
2017-12-29T02:50:12.120Z,-0.10
2017-12-29T02:52:39.996Z,-0.20
2017-12-29T02:55:07.923Z,-0.30
2017-12-29T02:57:35.807Z,-0.40
2017-12-29T03:00:04.596Z,-0.50
2017-12-29T03:02:33.254Z,-0.40
2017-12-29T03:05:01.193Z,-0.40
2017-12-29T03:07:33.076Z,-0.40
2017-12-29T03:10:01.011Z,-0.30
2017-12-29T03:12:28.882Z,-0.30
2017-12-29T03:14:56.813Z,-0.30
2017-12-29T03:17:24.687Z,-0.40
2017-12-29T03:19:52.597Z,-0.50
2017-12-29T03:22:20.504Z,-0.60
2017-12-29T03:24:48.436Z,-0.60
2017-12-29T03:27:16.307Z,-0.70
2017-12-29T03:29:44.239Z,-0.70
2017-12-29T03:32:12.876Z,-0.80
2017-12-29T03:34:40.792Z,-0.80
2017-12-29T03:37:08.667Z,-0.80
2017-12-29T03:39:36.603Z,-0.80
2017-12-29T03:42:04.483Z,-0.80
2017-12-29T03:44:32.403Z,-0.90
2017-12-29T03:47:00.313Z,-1.00
2017-12-29T03:49:29.352Z,-1.10
2017-12-29T03:51:57.239Z,-1.20
2017-12-29T03:54:25.164Z,-1.20
2017-12-29T03:56:53.098Z,-1.30
2017-12-29T03:59:20.984Z,-1.40
2017-12-29T04:01:48.903Z,-1.50
2017-12-29T04:04:16.829Z,-1.50
2017-12-29T04:06:45.661Z,-1.50
2017-12-29T04:09:13.587Z,-1.60
2017-12-29T04:11:41.467Z,-1.60
2017-12-29T04:14:09.338Z,-1.60
2017-12-29T04:16:37.269Z,-1.70
2017-12-29T04:19:05.138Z,-1.70
2017-12-29T04:21:33.078Z,-1.70
2017-12-29T04:24:01.000Z,-1.70
2017-12-29T04:26:28.923Z,-1.80
2017-12-29T04:28:56.807Z,-1.80
2017-12-29T04:31:24.747Z,-1.90
2017-12-29T04:33:52.613Z,-1.90
2017-12-29T04:36:20.554Z,-2.00
2017-12-29T04:38:48.441Z,-2.10
2017-12-29T04:41:16.365Z,-2.10
2017-12-29T04:43:44.231Z,-2.10
2017-12-29T04:46:12.165Z,-2.10
2017-12-29T04:48:40.048Z,-2.00
2017-12-29T04:51:07.990Z,-2.10
2017-12-29T04:53:35.877Z,-2.20
2017-12-29T04:56:03.815Z,-2.20
2017-12-29T04:58:31.699Z,-2.20
2017-12-29T05:00:59.625Z,-2.20
2017-12-29T05:03:27.504Z,-2.30
2017-12-29T05:05:55.430Z,-2.30
2017-12-29T05:08:23.306Z,-2.30
2017-12-29T05:10:51.253Z,-2.30
2017-12-29T05:13:19.140Z,-2.40
2017-12-29T05:15:47.081Z,-2.40
2017-12-29T05:18:14.954Z,-2.40
2017-12-29T05:20:42.904Z,-2.40
2017-12-29T05:23:11.552Z,-2.50
2017-12-29T05:25:39.498Z,-2.50
2017-12-29T05:28:08.628Z,-2.50
2017-12-29T05:30:36.580Z,-2.50
2017-12-29T05:33:04.471Z,-2.50
2017-12-29T05:35:32.408Z,-2.40
2017-12-29T05:38:00.271Z,-2.40
2017-12-29T05:40:28.200Z,-2.40
2017-12-29T05:42:56.069Z,-2.40
2017-12-29T05:45:24.021Z,-2.40
2017-12-29T05:47:51.895Z,-2.50
2017-12-29T05:50:19.842Z,-2.50
2017-12-29T05:52:47.731Z,-2.60
2017-12-29T05:55:16.450Z,-2.50
2017-12-29T05:57:44.339Z,-2.60
2017-12-29T06:00:12.298Z,-2.60
2017-12-29T06:02:40.194Z,-2.60
2017-12-29T06:05:08.091Z,-2.70
2017-12-29T06:07:36.034Z,-2.70
2017-12-29T06:10:03.920Z,-2.70
2017-12-29T06:12:31.882Z,-2.70
2017-12-29T06:14:59.763Z,-2.70
2017-12-29T06:17:27.699Z,-2.80
2017-12-29T06:19:55.582Z,-2.70
2017-12-29T06:22:23.516Z,-2.70
2017-12-29T06:24:51.409Z,-2.70
2017-12-29T06:27:19.339Z,-2.80
2017-12-29T06:29:47.223Z,-2.80
2017-12-29T06:32:15.146Z,-2.80
2017-12-29T06:34:43.032Z,-2.80
2017-12-29T06:37:10.966Z,-2.80
2017-12-29T06:39:38.855Z,-2.80
2017-12-29T06:42:06.789Z,-2.90
2017-12-29T06:44:34.669Z,-3.00
2017-12-29T06:47:02.594Z,-2.90
2017-12-29T06:49:30.479Z,-2.90
2017-12-29T06:51:58.412Z,-3.00
2017-12-29T06:54:26.294Z,-3.00
2017-12-29T06:56:54.248Z,-3.00
2017-12-29T06:59:22.182Z,-3.10
2017-12-29T07:01:50.122Z,-3.00
2017-12-29T07:04:18.053Z,-3.00
2017-12-29T07:06:46.009Z,-3.00
2017-12-29T07:09:13.938Z,-3.00
2017-12-29T07:11:41.839Z,-3.00
2017-12-29T07:14:09.776Z,-2.90
2017-12-29T07:16:37.648Z,-3.00
2017-12-29T07:19:05.575Z,-3.00
2017-12-29T07:21:33.623Z,-3.10
2017-12-29T07:24:01.558Z,-3.00
2017-12-29T07:26:29.564Z,-3.10
2017-12-29T07:28:57.491Z,-3.10
2017-12-29T07:31:25.381Z,-3.10
2017-12-29T07:33:53.332Z,-3.10
2017-12-29T07:36:21.240Z,-3.10
2017-12-29T07:38:49.224Z,-3.00
2017-12-29T07:41:17.120Z,-3.10
2017-12-29T07:43:45.066Z,-3.00
2017-12-29T07:46:12.960Z,-3.00
2017-12-29T07:48:40.901Z,-2.90
2017-12-29T07:51:08.779Z,-2.90
2017-12-29T07:53:37.471Z,-2.90
2017-12-29T07:56:05.510Z,-2.80
2017-12-29T07:58:33.450Z,-2.80
2017-12-29T08:01:01.331Z,-2.60
2017-12-29T08:03:29.270Z,-2.50
2017-12-29T08:05:57.166Z,-2.50
2017-12-29T08:08:25.104Z,-2.30
2017-12-29T08:10:53.041Z,-2.20
2017-12-29T08:13:21.700Z,-1.80
2017-12-29T08:15:49.632Z,-1.80
2017-12-29T08:18:17.526Z,-1.60
2017-12-29T08:20:45.463Z,-1.50
2017-12-29T08:23:13.347Z,-1.40
2017-12-29T08:25:41.286Z,-1.30
2017-12-29T08:28:09.168Z,-1.20
2017-12-29T08:30:37.104Z,-1.00
2017-12-29T08:33:05.000Z,-0.80
2017-12-29T08:35:32.932Z,-0.60
2017-12-29T08:38:00.804Z,-0.60
2017-12-29T08:40:28.746Z,-0.60
2017-12-29T08:42:56.623Z,-0.50
2017-12-29T08:45:24.631Z,-0.40
2017-12-29T08:47:52.574Z,-0.30
2017-12-29T08:50:20.505Z,-0.10
2017-12-29T08:52:48.444Z,0.40
2017-12-29T08:55:17.140Z,0.80
2017-12-29T08:57:45.011Z,0.80
2017-12-29T09:00:12.938Z,0.80
2017-12-29T09:02:40.816Z,0.70
2017-12-29T09:05:08.730Z,0.70
2017-12-29T09:07:36.602Z,0.80
2017-12-29T09:10:04.540Z,1.00
2017-12-29T09:12:32.414Z,1.00
2017-12-29T09:15:01.061Z,1.20
2017-12-29T09:17:31.021Z,1.20
2017-12-29T09:19:58.878Z,1.30
2017-12-29T09:22:26.804Z,1.40
2017-12-29T09:24:54.682Z,1.40
2017-12-29T09:27:22.701Z,1.50
2017-12-29T09:29:50.588Z,1.60
2017-12-29T09:32:19.679Z,1.60
2017-12-29T09:34:47.555Z,1.70
2017-12-29T09:37:15.480Z,1.90
2017-12-29T09:39:43.650Z,2.00
2017-12-29T09:42:11.625Z,1.90
2017-12-29T09:44:39.592Z,1.90
2017-12-29T09:47:07.588Z,2.00
2017-12-29T09:49:35.466Z,1.90
2017-12-29T09:52:03.439Z,1.80
2017-12-29T09:54:31.374Z,2.00
2017-12-29T09:56:59.326Z,2.10
2017-12-29T09:59:27.191Z,2.10
2017-12-29T10:01:56.480Z,2.10
2017-12-29T10:04:24.447Z,2.10
2017-12-29T10:06:52.425Z,2.20
2017-12-29T10:09:20.364Z,2.50
2017-12-29T10:11:48.467Z,2.60
2017-12-29T10:14:16.384Z,2.50
2017-12-29T10:16:44.461Z,2.50
2017-12-29T10:19:12.402Z,2.40
2017-12-29T10:21:40.332Z,2.40
2017-12-29T10:24:12.352Z,2.30
2017-12-29T10:26:42.497Z,2.30
2017-12-29T10:29:10.483Z,2.20
2017-12-29T10:31:39.351Z,2.20
2017-12-29T10:34:07.279Z,2.20
2017-12-29T10:36:41.086Z,2.20
2017-12-29T10:39:09.247Z,2.20
2017-12-29T10:41:37.142Z,2.20
2017-12-29T10:44:05.835Z,2.20
2017-12-29T10:46:34.487Z,2.20
2017-12-29T10:49:02.481Z,2.20
2017-12-29T10:51:30.355Z,2.30
2017-12-29T10:53:58.351Z,2.30
2017-12-29T10:56:26.227Z,2.30
2017-12-29T10:58:54.160Z,2.40
2017-12-29T11:01:22.074Z,2.40
2017-12-29T11:03:50.032Z,2.50
2017-12-29T11:06:21.267Z,2.50
2017-12-29T11:08:50.956Z,2.50
2017-12-29T11:11:18.851Z,2.60
2017-12-29T11:13:48.810Z,2.70
2017-12-29T11:16:16.687Z,2.70
2017-12-29T11:18:44.629Z,2.70
2017-12-29T11:21:12.569Z,2.70
2017-12-29T11:23:40.485Z,2.70
2017-12-29T11:26:08.426Z,2.70
2017-12-29T11:28:36.338Z,2.60
2017-12-29T11:31:04.299Z,2.70
2017-12-29T11:33:32.185Z,2.70
2017-12-29T11:36:00.343Z,2.80
2017-12-29T11:38:28.235Z,2.80
2017-12-29T11:40:56.199Z,2.80
2017-12-29T11:43:24.087Z,2.80
2017-12-29T11:45:52.822Z,2.70
2017-12-29T11:48:20.716Z,2.60
2017-12-29T11:50:48.669Z,2.60
2017-12-29T11:53:17.768Z,2.60
2017-12-29T11:55:45.715Z,2.70
2017-12-29T11:58:13.603Z,2.70
2017-12-29T12:00:41.565Z,2.80
2017-12-29T12:03:09.456Z,2.80
2017-12-29T12:05:38.360Z,2.90
2017-12-29T12:08:06.263Z,3.00
2017-12-29T12:10:34.200Z,3.20
2017-12-29T12:13:02.099Z,3.30
2017-12-29T12:15:30.032Z,3.40
2017-12-29T12:17:57.956Z,3.20
2017-12-29T12:20:25.940Z,3.10
2017-12-29T12:22:53.827Z,3.10
2017-12-29T12:25:21.757Z,3.10
2017-12-29T12:27:49.809Z,3.00
2017-12-29T12:30:18.524Z,2.90
2017-12-29T12:32:46.408Z,2.90
2017-12-29T12:35:14.293Z,2.90
2017-12-29T12:37:42.239Z,2.90
2017-12-29T12:40:10.130Z,2.90
2017-12-29T12:42:38.088Z,2.90
2017-12-29T12:45:05.997Z,2.90
2017-12-29T12:47:34.744Z,2.80
2017-12-29T12:50:02.649Z,2.80
2017-12-29T12:52:30.585Z,2.70
2017-12-29T12:54:58.462Z,2.80
2017-12-29T12:57:30.978Z,2.90
2017-12-29T12:59:59.696Z,2.90
2017-12-29T13:02:27.921Z,2.90
2017-12-29T13:04:55.964Z,2.80
2017-12-29T13:07:23.923Z,2.80
2017-12-29T13:09:51.830Z,2.80
2017-12-29T13:12:19.813Z,2.60
2017-12-29T13:14:47.783Z,2.50
2017-12-29T13:17:17.735Z,2.40
2017-12-29T13:19:45.612Z,2.20
2017-12-29T13:22:14.175Z,2.10
2017-12-29T13:24:42.896Z,1.90
2017-12-29T13:27:11.281Z,1.80
2017-12-29T13:29:39.220Z,1.90
2017-12-29T13:32:08.005Z,1.90
2017-12-29T13:34:35.883Z,1.90
2017-12-29T13:37:04.232Z,1.90
2017-12-29T13:39:32.744Z,1.80
2017-12-29T13:42:01.766Z,1.80
2017-12-29T13:44:29.688Z,1.70
2017-12-29T13:46:57.757Z,1.70
2017-12-29T13:49:26.565Z,1.70
2017-12-29T13:51:54.479Z,1.60
2017-12-29T13:54:26.029Z,1.80
2017-12-29T13:56:54.142Z,1.70
2017-12-29T13:59:22.864Z,1.70
2017-12-29T14:01:50.809Z,1.70
2017-12-29T14:04:19.811Z,1.80
2017-12-29T14:06:47.849Z,1.80
2017-12-29T14:09:15.895Z,1.70
2017-12-29T14:11:43.932Z,1.70
2017-12-29T14:14:12.250Z,1.70
2017-12-29T14:16:40.147Z,1.70
2017-12-29T14:19:08.101Z,1.70
2017-12-29T14:21:35.978Z,1.60
2017-12-29T14:24:03.943Z,1.60
2017-12-29T14:26:31.907Z,1.60
2017-12-29T14:28:59.856Z,1.60
2017-12-29T14:31:27.791Z,1.50
2017-12-29T14:33:55.680Z,1.40
2017-12-29T14:36:23.617Z,1.40
2017-12-29T14:38:52.307Z,1.50
2017-12-29T14:41:20.200Z,1.50
2017-12-29T14:43:48.141Z,1.50
2017-12-29T14:46:16.800Z,1.50
2017-12-29T14:48:44.700Z,1.50
2017-12-29T14:51:12.631Z,1.50
2017-12-29T14:53:40.514Z,1.70
2017-12-29T14:56:08.525Z,1.70
2017-12-29T14:58:36.453Z,1.60
2017-12-29T15:01:04.391Z,1.60
2017-12-29T15:03:32.336Z,1.60
2017-12-29T15:06:00.320Z,1.70
2017-12-29T15:08:28.205Z,1.70
2017-12-29T15:10:56.132Z,1.70
2017-12-29T15:13:24.017Z,1.60
2017-12-29T15:15:51.996Z,1.60
2017-12-29T15:18:19.991Z,1.60
2017-12-29T15:20:47.932Z,1.50
2017-12-29T15:23:16.626Z,1.50
2017-12-29T15:25:44.554Z,1.50
2017-12-29T15:28:12.441Z,1.50
2017-12-29T15:30:41.251Z,1.40
2017-12-29T15:33:09.148Z,1.40
2017-12-29T15:35:37.081Z,1.30
2017-12-29T15:38:04.967Z,1.30
2017-12-29T15:40:32.892Z,1.30
2017-12-29T15:43:01.537Z,1.30
2017-12-29T15:45:29.617Z,1.30
2017-12-29T15:47:57.694Z,1.20
2017-12-29T15:50:25.572Z,1.20
2017-12-29T15:52:53.568Z,1.10
2017-12-29T15:55:21.452Z,1.10
2017-12-29T15:57:49.373Z,1.00
2017-12-29T16:00:17.261Z,0.90
2017-12-29T16:02:45.218Z,0.80
2017-12-29T16:05:13.099Z,0.80
2017-12-29T16:07:41.011Z,0.80
2017-12-29T16:10:09.660Z,0.90
2017-12-29T16:12:37.608Z,0.90
2017-12-29T16:15:05.485Z,0.80
2017-12-29T16:17:35.527Z,0.90
2017-12-29T16:20:03.410Z,0.90
2017-12-29T16:22:31.327Z,0.90
2017-12-29T16:24:59.215Z,0.90
2017-12-29T16:27:27.139Z,0.90
2017-12-29T16:29:55.371Z,0.90
2017-12-29T16:32:24.047Z,1.00
2017-12-29T16:34:51.920Z,1.00
2017-12-29T16:37:19.836Z,1.00
2017-12-29T16:39:47.790Z,1.00
2017-12-29T16:42:15.846Z,1.00
2017-12-29T16:44:43.728Z,0.90
2017-12-29T16:47:11.774Z,1.00
2017-12-29T16:49:40.391Z,1.00
2017-12-29T16:52:08.309Z,1.00
2017-12-29T16:54:36.211Z,1.00
2017-12-29T16:57:04.134Z,1.00
2017-12-29T16:59:32.001Z,1.00
2017-12-29T17:01:59.929Z,1.00
2017-12-29T17:04:27.851Z,0.90
2017-12-29T17:06:55.779Z,0.90
2017-12-29T17:09:23.636Z,0.90
2017-12-29T17:11:51.555Z,0.90
2017-12-29T17:14:19.480Z,0.90
2017-12-29T17:16:52.955Z,0.90
2017-12-29T17:19:20.837Z,0.90
2017-12-29T17:21:48.768Z,0.80
2017-12-29T17:24:16.618Z,0.80
2017-12-29T17:26:44.530Z,0.90
2017-12-29T17:29:12.404Z,0.90
2017-12-29T17:31:40.350Z,0.90
2017-12-29T17:34:08.229Z,0.90
2017-12-29T17:36:38.956Z,1.00
2017-12-29T17:39:06.904Z,1.00
2017-12-29T17:41:34.831Z,1.00
2017-12-29T17:44:02.708Z,0.90
2017-12-29T17:46:30.762Z,0.90
2017-12-29T17:48:58.785Z,0.90
2017-12-29T17:51:26.696Z,0.90
2017-12-29T17:53:54.625Z,0.90
2017-12-29T17:56:22.486Z,0.80
2017-12-29T17:58:50.401Z,0.80
2017-12-29T18:01:18.277Z,0.80
2017-12-29T18:03:46.197Z,0.80
2017-12-29T18:06:14.113Z,0.80
2017-12-29T18:08:42.071Z,0.80
2017-12-29T18:11:10.009Z,0.80
2017-12-29T18:13:37.937Z,0.80
2017-12-29T18:16:09.352Z,0.90
2017-12-29T18:18:38.806Z,0.80
2017-12-29T18:21:06.941Z,0.80
2017-12-29T18:23:35.760Z,0.80
2017-12-29T18:26:03.655Z,0.80
2017-12-29T18:28:31.658Z,0.90
2017-12-29T18:31:00.322Z,0.80
2017-12-29T18:33:28.325Z,0.80
2017-12-29T18:35:56.257Z,0.80
2017-12-29T18:38:24.214Z,0.90
2017-12-29T18:40:52.134Z,0.80
2017-12-29T18:43:20.795Z,0.80
2017-12-29T18:45:48.708Z,0.80
2017-12-29T18:48:16.652Z,0.80
2017-12-29T18:50:44.556Z,0.80
2017-12-29T18:53:12.520Z,0.90
2017-12-29T18:55:40.412Z,0.90
2017-12-29T18:58:08.350Z,0.80
2017-12-29T19:00:36.259Z,0.80
2017-12-29T19:03:04.228Z,0.90
2017-12-29T19:05:32.136Z,0.80
2017-12-29T19:08:06.437Z,0.90
2017-12-29T19:10:34.342Z,0.80
2017-12-29T19:13:02.301Z,0.90
2017-12-29T19:15:30.196Z,0.90
2017-12-29T19:17:58.154Z,0.80
2017-12-29T19:20:26.047Z,0.80
2017-12-29T19:22:54.090Z,0.80
2017-12-29T19:25:22.086Z,0.80
2017-12-29T19:27:50.046Z,0.80
2017-12-29T19:30:18.081Z,0.80
2017-12-29T19:32:46.029Z,0.90
2017-12-29T19:35:14.025Z,0.90
2017-12-29T19:37:42.101Z,0.90
2017-12-29T19:40:10.108Z,0.90
2017-12-29T19:42:38.068Z,0.90
2017-12-29T19:45:06.035Z,0.90
2017-12-29T19:47:34.037Z,0.90
2017-12-29T19:50:02.058Z,0.90
2017-12-29T19:52:30.058Z,0.90
2017-12-29T19:54:58.990Z,0.80
2017-12-29T19:57:29.664Z,0.80
2017-12-29T19:59:57.852Z,0.90
2017-12-29T20:02:28.556Z,0.80
2017-12-29T20:04:56.719Z,0.80
2017-12-29T20:07:24.777Z,0.90
2017-12-29T20:09:54.455Z,0.90
2017-12-29T20:12:23.357Z,0.90
2017-12-29T20:14:51.549Z,0.90
2017-12-29T20:17:19.594Z,0.90
2017-12-29T20:19:47.671Z,1.00
2017-12-29T20:22:15.763Z,1.00
2017-12-29T20:24:43.846Z,1.00
2017-12-29T20:27:24.625Z,0.90
2017-12-29T20:29:52.735Z,0.90
2017-12-29T20:32:20.863Z,0.90
2017-12-29T20:34:49.034Z,0.90
2017-12-29T20:37:17.886Z,0.90
2017-12-29T20:39:45.979Z,0.80
2017-12-29T20:42:13.973Z,0.80
2017-12-29T20:44:41.986Z,0.90
2017-12-29T20:47:10.199Z,0.90
2017-12-29T20:49:39.338Z,1.00
2017-12-29T20:52:07.411Z,1.00
2017-12-29T20:54:35.460Z,1.00
2017-12-29T20:57:04.789Z,1.00
2017-12-29T20:59:32.794Z,1.10
2017-12-29T21:02:00.890Z,1.00
2017-12-29T21:04:28.933Z,1.00
2017-12-29T21:06:56.935Z,1.00
2017-12-29T21:09:24.924Z,1.00
2017-12-29T21:11:58.791Z,1.00
2017-12-29T21:14:26.908Z,1.00
2017-12-29T21:16:55.586Z,1.00
2017-12-29T21:19:24.313Z,1.00
2017-12-29T21:21:52.314Z,1.00
2017-12-29T21:24:20.295Z,1.00
2017-12-29T21:26:48.309Z,1.00
2017-12-29T21:29:17.085Z,1.10
2017-12-29T21:31:45.126Z,1.00
2017-12-29T21:34:13.124Z,1.00
2017-12-29T21:36:41.116Z,1.00
2017-12-29T21:39:09.070Z,1.00
2017-12-29T21:41:37.083Z,1.00
2017-12-29T21:44:05.009Z,1.10
2017-12-29T21:46:33.193Z,1.10
2017-12-29T21:49:01.151Z,1.20
2017-12-29T21:51:29.120Z,1.20
2017-12-29T21:53:57.118Z,1.30
2017-12-29T21:56:25.134Z,1.30
2017-12-29T21:58:53.124Z,1.30
2017-12-29T22:01:21.076Z,1.30
2017-12-29T22:03:49.131Z,1.30
2017-12-29T22:06:17.614Z,1.30
2017-12-29T22:08:46.317Z,1.30
2017-12-29T22:11:14.339Z,1.30
2017-12-29T22:13:43.118Z,1.30
2017-12-29T22:16:15.085Z,1.30
2017-12-29T22:18:43.062Z,1.30
2017-12-29T22:21:11.002Z,1.40
2017-12-29T22:23:39.035Z,1.40
2017-12-29T22:26:06.914Z,1.40
2017-12-29T22:28:36.867Z,1.40
2017-12-29T22:31:04.791Z,1.40
2017-12-29T22:33:32.801Z,1.40
2017-12-29T22:36:13.812Z,1.40
2017-12-29T22:38:41.800Z,1.40
2017-12-29T22:41:09.725Z,1.40
2017-12-29T22:43:37.712Z,1.40
2017-12-29T22:46:05.722Z,1.40
2017-12-29T22:48:33.712Z,1.40
2017-12-29T22:51:01.654Z,1.50
2017-12-29T22:53:30.413Z,1.40
2017-12-29T22:55:59.120Z,1.30
2017-12-29T22:58:27.114Z,1.30
2017-12-29T23:00:55.054Z,1.20
2017-12-29T23:03:22.977Z,1.10
2017-12-29T23:05:51.164Z,1.00
2017-12-29T23:08:19.069Z,0.90
2017-12-29T23:10:47.033Z,0.70
2017-12-29T23:13:14.931Z,0.70
2017-12-29T23:15:42.936Z,0.80
2017-12-29T23:18:10.888Z,0.80
2017-12-29T23:20:38.860Z,0.80
2017-12-29T23:23:06.775Z,0.70
2017-12-29T23:25:34.844Z,0.70
2017-12-29T23:28:05.579Z,0.90
2017-12-29T23:30:34.319Z,1.00
2017-12-29T23:33:02.233Z,1.00
2017-12-29T23:35:30.181Z,1.00
2017-12-29T23:37:58.097Z,1.10
2017-12-29T23:40:26.074Z,1.10
2017-12-29T23:42:54.081Z,1.20
2017-12-29T23:45:22.066Z,1.20
2017-12-29T23:47:49.954Z,1.20
2017-12-29T23:50:18.674Z,1.30
2017-12-29T23:52:46.577Z,1.30
2017-12-29T23:55:14.547Z,1.30
2017-12-29T23:57:42.453Z,1.20
